createdAt,value
2023-01-20T00:00:09.101Z,98639.31
2023-01-20T00:01:18.059Z,98644.56
2023-01-20T00:02:22.103Z,98646.72
2023-01-20T00:03:26.400Z,98645.03
2023-01-20T00:04:30.033Z,98649.22
2023-01-20T00:05:34.230Z,98653.66
2023-01-20T00:06:37.895Z,98651.91
2023-01-20T00:07:41.865Z,98649.97
2023-01-20T00:08:51.283Z,98653.47
2023-01-20T00:09:55.859Z,98656.25
2023-01-20T00:11:05.627Z,98657.84
2023-01-20T00:12:11.790Z,98655.16
2023-01-20T00:13:15.911Z,98649.91
2023-01-20T00:14:19.836Z,98649.81
2023-01-20T00:15:23.335Z,98652.53
2023-01-20T00:16:28.798Z,98649.91
2023-01-20T00:17:32.568Z,98643.13
2023-01-20T00:18:37.404Z,98643.81
2023-01-20T00:19:41.169Z,98649.13
2023-01-20T00:20:44.917Z,98648.28
2023-01-20T00:21:48.768Z,98646.03
2023-01-20T00:22:52.592Z,98653.66
2023-01-20T00:23:56.923Z,98657.09
2023-01-20T00:25:00.419Z,98661.50
2023-01-20T00:26:10.824Z,98661.50
2023-01-20T00:27:16.072Z,98660.63
2023-01-20T00:28:19.614Z,98663.25
2023-01-20T00:29:23.517Z,98664.03
2023-01-20T00:30:27.423Z,98667.63
2023-01-20T00:31:32.788Z,98669.56
2023-01-20T00:32:45.088Z,98675.84
2023-01-20T00:33:51.956Z,98677.53
2023-01-20T00:34:56.047Z,98675.75
2023-01-20T00:36:01.753Z,98676.03
2023-01-20T00:37:08.147Z,98670.59
2023-01-20T00:38:12.908Z,98668.81
2023-01-20T00:39:16.677Z,98673.13
2023-01-20T00:40:20.770Z,98678.50
2023-01-20T00:41:24.770Z,98682.78
2023-01-20T00:42:28.981Z,98670.63
2023-01-20T00:43:33.067Z,98669.69
2023-01-20T00:44:37.049Z,98665.34
2023-01-20T00:45:41.683Z,98646.19
2023-01-20T00:46:45.723Z,98656.84
2023-01-20T00:47:49.395Z,98649.03
2023-01-20T00:48:53.494Z,98649.81
2023-01-20T00:49:57.383Z,98661.06
2023-01-20T00:51:01.761Z,98659.44
2023-01-20T00:52:05.632Z,98659.38
2023-01-20T00:53:14.602Z,98657.59
2023-01-20T00:54:18.398Z,98664.69
2023-01-20T00:55:22.301Z,98660.31
2023-01-20T00:56:26.373Z,98663.94
2023-01-20T00:57:35.054Z,98667.53
2023-01-20T00:58:38.789Z,98670.97
2023-01-20T00:59:42.576Z,98681.75
2023-01-20T01:00:57.924Z,98691.06
2023-01-20T01:02:02.772Z,98695.41
2023-01-20T01:03:09.745Z,98714.66
2023-01-20T01:04:13.715Z,98715.53
2023-01-20T01:05:17.593Z,98713.13
2023-01-20T01:06:23.650Z,98717.53
2023-01-20T01:07:27.523Z,98714.19
2023-01-20T01:08:31.370Z,98706.31
2023-01-20T01:09:35.245Z,98689.72
2023-01-20T01:10:40.839Z,98689.81
2023-01-20T01:11:44.504Z,98697.59
2023-01-20T01:12:48.676Z,98694.97
2023-01-20T01:13:52.532Z,98699.38
2023-01-20T01:14:56.815Z,98697.59
2023-01-20T01:16:01.162Z,98704.69
2023-01-20T01:17:06.376Z,98702.06
2023-01-20T01:18:14.483Z,98701.06
2023-01-20T01:19:19.919Z,98698.53
2023-01-20T01:20:25.081Z,98689.91
2023-01-20T01:21:29.184Z,98697.75
2023-01-20T01:22:34.062Z,98687.28
2023-01-20T01:23:38.063Z,98688.41
2023-01-20T01:24:46.887Z,98679.84
2023-01-20T01:25:50.476Z,98686.06
2023-01-20T01:26:54.632Z,98684.28
2023-01-20T01:27:58.231Z,98683.53
2023-01-20T01:29:01.857Z,98678.13
2023-01-20T01:30:08.140Z,98679.97
2023-01-20T01:31:12.003Z,98683.69
2023-01-20T01:32:15.677Z,98695.88
2023-01-20T01:33:19.493Z,98695.06
2023-01-20T01:34:23.465Z,98692.44
2023-01-20T01:35:27.631Z,98696.91
2023-01-20T01:36:31.218Z,98694.28
2023-01-20T01:37:35.027Z,98689.97
2023-01-20T01:38:38.500Z,98688.13
2023-01-20T01:39:42.271Z,98689.91
2023-01-20T01:40:50.872Z,98690.75
2023-01-20T01:41:54.518Z,98688.28
2023-01-20T01:42:58.099Z,98687.34
2023-01-20T01:44:12.410Z,98689.22
2023-01-20T01:45:26.272Z,98687.50
2023-01-20T01:46:30.432Z,98691.34
2023-01-20T01:47:35.120Z,98689.47
2023-01-20T01:48:46.117Z,98692.94
2023-01-20T01:49:49.750Z,98694.81
2023-01-20T01:51:06.191Z,98696.69
2023-01-20T01:52:11.421Z,98687.91
2023-01-20T01:53:16.178Z,98688.06
2023-01-20T01:54:26.263Z,98697.63
2023-01-20T01:55:41.566Z,98695.84
2023-01-20T01:56:49.860Z,98695.94
2023-01-20T01:57:56.661Z,98701.16
2023-01-20T01:59:03.780Z,98700.41
2023-01-20T02:00:13.321Z,98711.84
2023-01-20T02:01:18.099Z,98710.22
2023-01-20T02:02:21.971Z,98708.38
2023-01-20T02:03:44.370Z,98703.91
2023-01-20T02:04:48.786Z,98708.25
2023-01-20T02:05:56.006Z,98704.72
2023-01-20T02:07:08.646Z,98721.41
2023-01-20T02:08:12.567Z,98723.84
2023-01-20T02:09:17.615Z,98725.69
2023-01-20T02:10:21.202Z,98718.50
2023-01-20T02:11:25.178Z,98722.78
2023-01-20T02:12:30.257Z,98727.03
2023-01-20T02:13:35.177Z,98732.97
2023-01-20T02:14:46.042Z,98732.97
2023-01-20T02:16:21.297Z,98731.22
2023-01-20T02:17:49.795Z,98728.53
2023-01-20T02:19:24.508Z,98728.53
2023-01-20T02:20:45.995Z,98728.44
2023-01-20T02:22:15.272Z,98726.75
2023-01-20T02:23:54.106Z,98732.84
2023-01-20T02:25:45.048Z,98728.44
2023-01-20T02:27:24.019Z,98728.28
2023-01-20T02:29:01.724Z,98722.22
2023-01-20T02:30:48.730Z,98721.50
2023-01-20T02:32:19.918Z,98720.66
2023-01-20T02:33:52.665Z,98715.25
2023-01-20T02:35:09.316Z,98718.13
2023-01-20T02:36:21.703Z,98721.59
2023-01-20T02:37:57.151Z,98735.47
2023-01-20T02:39:26.963Z,98737.31
2023-01-20T02:40:57.467Z,98742.34
2023-01-20T02:42:24.353Z,98738.66
2023-01-20T02:43:46.997Z,98740.44
2023-01-20T02:45:14.519Z,98744.75
2023-01-20T02:46:39.915Z,98743.81
2023-01-20T02:48:08.153Z,98737.84
2023-01-20T02:49:32.301Z,98745.72
2023-01-20T02:50:48.885Z,98739.34
2023-01-20T02:52:26.209Z,98743.91
2023-01-20T02:54:08.606Z,98750.13
2023-01-20T02:55:28.754Z,98747.44
2023-01-20T02:56:34.966Z,98751.69
2023-01-20T02:57:46.689Z,98755.88
2023-01-20T02:59:01.198Z,98763.69
2023-01-20T03:00:26.074Z,98759.19
2023-01-20T03:01:42.054Z,98751.25
2023-01-20T03:02:50.752Z,98751.25
2023-01-20T03:04:00.999Z,98749.72
2023-01-20T03:05:19.842Z,98747.03
2023-01-20T03:06:32.379Z,98738.44
2023-01-20T03:07:40.475Z,98751.53
2023-01-20T03:08:47.798Z,98753.47
2023-01-20T03:09:56.245Z,98745.59
2023-01-20T03:11:14.756Z,98751.63
2023-01-20T03:12:27.872Z,98755.81
2023-01-20T03:13:55.246Z,98754.81
2023-01-20T03:14:59.548Z,98748.63
2023-01-20T03:16:18.035Z,98757.22
2023-01-20T03:17:23.088Z,98755.44
2023-01-20T03:18:33.050Z,98753.75
2023-01-20T03:19:37.235Z,98759.28
2023-01-20T03:20:41.136Z,98761.06
2023-01-20T03:21:45.287Z,98753.97
2023-01-20T03:22:50.077Z,98761.63
2023-01-20T03:24:00.472Z,98758.06
2023-01-20T03:25:08.811Z,98753.59
2023-01-20T03:26:18.189Z,98749.38
2023-01-20T03:27:22.102Z,98746.88
2023-01-20T03:28:26.308Z,98746.66
2023-01-20T03:29:30.814Z,98750.13
2023-01-20T03:30:34.752Z,98749.13
2023-01-20T03:31:48.161Z,98755.22
2023-01-20T03:32:53.633Z,98755.44
2023-01-20T03:34:05.660Z,98753.97
2023-01-20T03:35:16.721Z,98757.31
2023-01-20T03:36:25.268Z,98753.59
2023-01-20T03:37:29.083Z,98763.09
2023-01-20T03:38:32.830Z,98766.59
2023-01-20T03:39:40.159Z,98764.75
2023-01-20T03:41:13.738Z,98768.97
2023-01-20T03:42:31.813Z,98776.00
2023-01-20T03:44:10.808Z,98769.97
2023-01-20T03:45:46.977Z,98774.22
2023-01-20T03:47:14.000Z,98769.13
2023-01-20T03:48:47.702Z,98771.88
2023-01-20T03:50:02.760Z,98772.22
2023-01-20T03:51:33.675Z,98761.19
2023-01-20T03:53:10.932Z,98767.28
2023-01-20T03:54:26.336Z,98755.44
2023-01-20T03:55:48.257Z,98765.81
2023-01-20T03:57:08.327Z,98753.59
2023-01-20T03:58:21.395Z,98758.50
2023-01-20T03:59:26.366Z,98762.59
2023-01-20T04:00:35.592Z,98765.38
2023-01-20T04:01:44.707Z,98758.19
2023-01-20T04:02:50.992Z,98760.06
2023-01-20T04:03:57.890Z,98761.75
2023-01-20T04:05:03.940Z,98764.28
2023-01-20T04:06:15.316Z,98764.16
2023-01-20T04:07:26.052Z,98769.63
2023-01-20T04:08:35.632Z,98771.53
2023-01-20T04:09:48.199Z,98764.66
2023-01-20T04:10:55.312Z,98765.38
2023-01-20T04:11:59.782Z,98766.38
2023-01-20T04:13:03.374Z,98773.25
2023-01-20T04:14:09.996Z,98778.56
2023-01-20T04:15:14.500Z,98782.16
2023-01-20T04:16:20.537Z,98772.66
2023-01-20T04:17:33.978Z,98771.53
2023-01-20T04:18:43.083Z,98781.09
2023-01-20T04:19:47.081Z,98778.84
2023-01-20T04:21:34.922Z,98779.69
2023-01-20T04:22:57.565Z,98781.47
2023-01-20T04:24:33.401Z,98788.19
2023-01-20T04:25:37.614Z,98794.34
2023-01-20T04:26:41.618Z,98791.09
2023-01-20T04:27:45.527Z,98791.94
2023-01-20T04:28:49.649Z,98801.34
2023-01-20T04:29:53.386Z,98803.47
2023-01-20T04:30:57.633Z,98804.47
2023-01-20T04:32:03.623Z,98804.41
2023-01-20T04:33:07.657Z,98799.31
2023-01-20T04:34:15.766Z,98801.13
2023-01-20T04:35:20.637Z,98798.56
2023-01-20T04:36:24.386Z,98797.97
2023-01-20T04:37:29.617Z,98804.94
2023-01-20T04:38:33.664Z,98804.09
2023-01-20T04:39:37.561Z,98811.75
2023-01-20T04:40:43.224Z,98813.34
2023-01-20T04:41:48.625Z,98811.50
2023-01-20T04:42:52.282Z,98807.28
2023-01-20T04:43:56.060Z,98815.16
2023-01-20T04:45:00.125Z,98816.84
2023-01-20T04:46:04.398Z,98818.50
2023-01-20T04:47:13.910Z,98813.53
2023-01-20T04:48:17.689Z,98823.94
2023-01-20T04:49:22.007Z,98822.41
2023-01-20T04:50:26.162Z,98825.97
2023-01-20T04:51:29.875Z,98825.00
2023-01-20T04:52:34.036Z,98827.34
2023-01-20T04:53:38.220Z,98832.66
2023-01-20T04:54:42.121Z,98834.56
2023-01-20T04:55:46.625Z,98834.56
2023-01-20T04:56:50.775Z,98838.97
2023-01-20T04:57:54.919Z,98838.97
2023-01-20T04:58:59.583Z,98838.25
2023-01-20T05:00:06.162Z,98845.31
2023-01-20T05:01:11.444Z,98845.06
2023-01-20T05:02:15.451Z,98838.06
2023-01-20T05:03:20.144Z,98841.63
2023-01-20T05:04:23.886Z,98843.47
2023-01-20T05:05:30.211Z,98845.31
2023-01-20T05:06:33.863Z,98847.78
2023-01-20T05:07:37.623Z,98856.84
2023-01-20T05:08:41.557Z,98851.59
2023-01-20T05:09:45.625Z,98852.25
2023-01-20T05:10:49.846Z,98851.16
2023-01-20T05:11:53.365Z,98859.72
2023-01-20T05:12:56.963Z,98856.13
2023-01-20T05:14:01.067Z,98849.50
2023-01-20T05:15:06.073Z,98849.47
2023-01-20T05:16:11.620Z,98853.13
2023-01-20T05:17:15.312Z,98848.22
2023-01-20T05:18:19.169Z,98848.03
2023-01-20T05:19:22.836Z,98843.81
2023-01-20T05:20:26.601Z,98849.91
2023-01-20T05:21:31.001Z,98853.53
2023-01-20T05:22:34.809Z,98850.91
2023-01-20T05:23:38.916Z,98849.84
2023-01-20T05:24:43.129Z,98853.53
2023-01-20T05:25:54.621Z,98847.44
2023-01-20T05:27:01.890Z,98850.97
2023-01-20T05:28:07.170Z,98849.84
2023-01-20T05:29:15.099Z,98857.44
2023-01-20T05:30:19.029Z,98850.41
2023-01-20T05:31:22.707Z,98851.41
2023-01-20T05:32:26.380Z,98855.94
2023-01-20T05:33:30.026Z,98855.94
2023-01-20T05:34:33.667Z,98853.31
2023-01-20T05:35:40.416Z,98848.97
2023-01-20T05:36:44.253Z,98856.59
2023-01-20T05:37:48.150Z,98860.78
2023-01-20T05:38:51.712Z,98862.59
2023-01-20T05:39:55.361Z,98860.06
2023-01-20T05:41:04.513Z,98861.38
2023-01-20T05:42:10.701Z,98870.03
2023-01-20T05:43:14.988Z,98857.19
2023-01-20T05:44:18.573Z,98867.41
2023-01-20T05:45:22.590Z,98869.84
2023-01-20T05:46:27.023Z,98864.94
2023-01-20T05:47:31.507Z,98864.00
2023-01-20T05:48:35.023Z,98863.00
2023-01-20T05:49:38.685Z,98862.09
2023-01-20T05:50:43.401Z,98871.66
2023-01-20T05:51:47.077Z,98869.94
2023-01-20T05:52:51.544Z,98876.78
2023-01-20T05:53:55.312Z,98869.84
2023-01-20T05:54:59.096Z,98874.09
2023-01-20T05:56:07.015Z,98874.16
2023-01-20T05:57:14.050Z,98873.22
2023-01-20T05:58:18.202Z,98871.53
2023-01-20T05:59:23.426Z,98872.31
2023-01-20T06:00:27.434Z,98868.72
2023-01-20T06:01:30.987Z,98875.72
2023-01-20T06:02:34.798Z,98876.63
2023-01-20T06:03:39.816Z,98873.97
2023-01-20T06:04:43.687Z,98876.63
2023-01-20T06:05:49.601Z,98877.47
2023-01-20T06:06:53.531Z,98881.75
2023-01-20T06:07:57.902Z,98882.53
2023-01-20T06:09:01.635Z,98889.47
2023-01-20T06:10:06.145Z,98886.84
2023-01-20T06:11:11.197Z,98886.00
2023-01-20T06:12:15.434Z,98886.00
2023-01-20T06:13:19.383Z,98893.78
2023-01-20T06:14:23.065Z,98888.56
2023-01-20T06:15:26.722Z,98887.63
2023-01-20T06:16:30.354Z,98885.91
2023-01-20T06:17:34.248Z,98894.53
2023-01-20T06:18:38.213Z,98898.06
2023-01-20T06:19:41.842Z,98891.91
2023-01-20T06:20:45.956Z,98891.84
2023-01-20T06:21:49.640Z,98896.22
2023-01-20T06:22:56.580Z,98897.69
2023-01-20T06:24:00.211Z,98901.03
2023-01-20T06:25:04.719Z,98900.38
2023-01-20T06:26:14.057Z,98901.16
2023-01-20T06:27:17.763Z,98904.53
2023-01-20T06:28:21.290Z,98903.66
2023-01-20T06:29:25.049Z,98908.75
2023-01-20T06:30:32.643Z,98910.44
2023-01-20T06:31:37.712Z,98909.50
2023-01-20T06:32:41.357Z,98905.94
2023-01-20T06:33:45.331Z,98908.56
2023-01-20T06:34:48.941Z,98910.19
2023-01-20T06:35:57.340Z,98905.72
2023-01-20T06:37:02.316Z,98910.97
2023-01-20T06:38:05.997Z,98910.03
2023-01-20T06:39:11.185Z,98910.91
2023-01-20T06:40:16.289Z,98916.09
2023-01-20T06:41:22.089Z,98909.16
2023-01-20T06:42:26.095Z,98913.41
2023-01-20T06:43:31.837Z,98911.56
2023-01-20T06:44:35.946Z,98909.94
2023-01-20T06:45:43.934Z,98911.97
2023-01-20T06:46:48.463Z,98914.66
2023-01-20T06:47:52.030Z,98905.03
2023-01-20T06:49:00.652Z,98913.66
2023-01-20T06:50:05.088Z,98912.66
2023-01-20T06:51:23.703Z,98911.03
2023-01-20T06:52:28.013Z,98920.50
2023-01-20T06:53:31.719Z,98918.72
2023-01-20T06:54:36.013Z,98919.50
2023-01-20T06:55:39.766Z,98922.13
2023-01-20T06:56:44.009Z,98919.34
2023-01-20T06:57:47.667Z,98916.69
2023-01-20T06:58:52.170Z,98919.25
2023-01-20T06:59:56.278Z,98920.19
2023-01-20T07:01:10.814Z,98926.31
2023-01-20T07:02:15.115Z,98924.66
2023-01-20T07:03:19.624Z,98918.56
2023-01-20T07:04:23.191Z,98921.97
2023-01-20T07:05:27.050Z,98919.34
2023-01-20T07:06:38.979Z,98926.25
2023-01-20T07:07:46.479Z,98922.78
2023-01-20T07:08:50.845Z,98927.38
2023-01-20T07:09:57.191Z,98934.22
2023-01-20T07:11:01.357Z,98928.13
2023-01-20T07:12:11.232Z,98924.59
2023-01-20T07:13:15.559Z,98922.19
2023-01-20T07:14:19.433Z,98918.47
2023-01-20T07:15:23.208Z,98925.41
2023-01-20T07:16:27.242Z,98924.47
2023-01-20T07:17:30.991Z,98921.00
2023-01-20T07:18:35.195Z,98920.16
2023-01-20T07:19:38.951Z,98916.63
2023-01-20T07:20:43.910Z,98919.25
2023-01-20T07:21:47.566Z,98920.94
2023-01-20T07:22:51.151Z,98916.69
2023-01-20T07:23:55.256Z,98923.75
2023-01-20T07:24:59.247Z,98920.19
2023-01-20T07:26:16.546Z,98926.44
2023-01-20T07:27:20.559Z,98929.22
2023-01-20T07:28:24.208Z,98923.03
2023-01-20T07:29:28.500Z,98922.19
2023-01-20T07:30:33.267Z,98932.94
2023-01-20T07:31:37.618Z,98941.78
2023-01-20T07:32:44.327Z,98941.13
2023-01-20T07:33:48.757Z,98944.47
2023-01-20T07:34:52.351Z,98943.69
2023-01-20T07:35:56.017Z,98949.00
2023-01-20T07:37:14.833Z,98953.56
2023-01-20T07:38:19.347Z,98950.09
2023-01-20T07:39:23.053Z,98952.00
2023-01-20T07:40:27.250Z,98952.97
2023-01-20T07:41:31.164Z,98949.44
2023-01-20T07:42:38.311Z,98950.41
2023-01-20T07:43:46.519Z,98946.09
2023-01-20T07:44:50.225Z,98951.28
2023-01-20T07:46:02.492Z,98945.34
2023-01-20T07:47:08.524Z,98946.28
2023-01-20T07:48:12.787Z,98942.69
2023-01-20T07:49:16.374Z,98948.66
2023-01-20T07:50:19.940Z,98945.97
2023-01-20T07:51:23.531Z,98954.03
2023-01-20T07:52:27.560Z,98947.25
2023-01-20T07:53:34.470Z,98948.81
2023-01-20T07:54:38.390Z,98949.72
2023-01-20T07:55:45.346Z,98945.44
2023-01-20T07:56:49.117Z,98945.25
2023-01-20T07:57:53.328Z,98950.56
2023-01-20T07:58:57.719Z,98940.97
2023-01-20T08:00:05.693Z,98948.78
2023-01-20T08:01:15.618Z,98951.41
2023-01-20T08:02:20.042Z,98947.94
2023-01-20T08:03:27.451Z,98953.22
2023-01-20T08:04:33.818Z,98957.50
2023-01-20T08:05:37.619Z,98952.97
2023-01-20T08:06:41.334Z,98953.97
2023-01-20T08:07:45.396Z,98959.13
2023-01-20T08:08:49.849Z,98961.66
2023-01-20T08:09:53.848Z,98958.09
2023-01-20T08:10:58.650Z,98962.66
2023-01-20T08:12:02.489Z,98959.06
2023-01-20T08:13:06.731Z,98957.28
2023-01-20T08:14:12.268Z,98966.88
2023-01-20T08:15:16.771Z,98964.25
2023-01-20T08:16:21.163Z,98972.00
2023-01-20T08:17:25.411Z,98973.88
2023-01-20T08:18:30.709Z,98970.28
2023-01-20T08:19:34.503Z,98976.38
2023-01-20T08:20:44.829Z,98977.22
2023-01-20T08:21:48.420Z,98976.25
2023-01-20T08:22:52.629Z,98984.06
2023-01-20T08:23:58.798Z,98984.09
2023-01-20T08:25:02.940Z,98986.72
2023-01-20T08:26:07.629Z,98983.31
2023-01-20T08:27:14.344Z,98977.16
2023-01-20T08:28:18.362Z,98977.94
2023-01-20T08:29:22.099Z,98982.22
2023-01-20T08:30:27.126Z,98981.44
2023-01-20T08:31:31.187Z,98982.28
2023-01-20T08:32:34.839Z,98977.75
2023-01-20T08:33:39.694Z,98980.31
2023-01-20T08:34:43.434Z,98978.50
2023-01-20T08:35:48.069Z,98981.81
2023-01-20T08:36:54.142Z,98978.28
2023-01-20T08:37:57.640Z,98973.81
2023-01-20T08:39:05.111Z,98979.03
2023-01-20T08:40:11.372Z,98977.25
2023-01-20T08:41:24.332Z,98977.19
2023-01-20T08:42:28.532Z,98977.19
2023-01-20T08:43:32.204Z,98972.84
2023-01-20T08:44:35.763Z,98979.66
2023-01-20T08:45:40.063Z,98976.19
2023-01-20T08:46:45.409Z,98984.88
2023-01-20T08:47:49.127Z,98976.00
2023-01-20T08:48:54.473Z,98981.25
2023-01-20T08:50:09.205Z,98989.78
2023-01-20T08:51:17.843Z,98980.22
2023-01-20T08:52:21.985Z,98992.25
2023-01-20T08:53:26.353Z,98991.47
2023-01-20T08:54:34.513Z,98995.22
2023-01-20T08:55:38.250Z,98993.38
2023-01-20T08:56:42.282Z,98989.63
2023-01-20T08:57:46.694Z,98997.50
2023-01-20T08:58:51.982Z,98993.84
2023-01-20T08:59:56.025Z,98992.00
2023-01-20T09:01:00.267Z,98993.88
2023-01-20T09:02:04.512Z,98985.25
2023-01-20T09:03:12.532Z,98990.56
2023-01-20T09:04:19.370Z,98987.28
2023-01-20T09:05:23.388Z,98998.63
2023-01-20T09:06:27.508Z,98994.34
2023-01-20T09:07:31.463Z,99000.53
2023-01-20T09:08:37.491Z,98998.69
2023-01-20T09:09:41.021Z,99002.16
2023-01-20T09:10:46.056Z,98998.56
2023-01-20T09:11:53.229Z,98995.03
2023-01-20T09:12:56.895Z,98996.84
2023-01-20T09:14:01.545Z,99005.44
2023-01-20T09:15:11.228Z,98996.06
2023-01-20T09:16:19.578Z,99004.72
2023-01-20T09:17:23.425Z,99009.09
2023-01-20T09:18:31.319Z,99004.78
2023-01-20T09:19:35.800Z,99009.25
2023-01-20T09:20:39.554Z,99004.00
2023-01-20T09:21:44.864Z,99005.84
2023-01-20T09:22:48.694Z,99005.84
2023-01-20T09:23:52.776Z,99011.19
2023-01-20T09:24:57.017Z,99005.25
2023-01-20T09:26:05.229Z,99010.50
2023-01-20T09:27:14.916Z,99003.53
2023-01-20T09:28:18.461Z,99008.78
2023-01-20T09:29:22.727Z,99003.53
2023-01-20T09:30:26.443Z,99005.09
2023-01-20T09:31:30.142Z,99004.41
2023-01-20T09:32:33.967Z,99002.66
2023-01-20T09:33:39.508Z,99004.19
2023-01-20T09:34:46.193Z,99005.88
2023-01-20T09:35:58.849Z,99001.69
2023-01-20T09:37:22.583Z,99000.72
2023-01-20T09:38:47.605Z,99001.69
2023-01-20T09:40:09.940Z,98998.34
2023-01-20T09:41:55.961Z,98992.13
2023-01-20T09:43:54.600Z,98994.09
2023-01-20T09:45:25.032Z,98992.19
2023-01-20T09:47:14.657Z,98995.72
2023-01-20T09:49:31.442Z,98995.13
2023-01-20T09:51:05.641Z,98987.41
2023-01-20T09:52:53.107Z,98993.41
2023-01-20T09:54:14.016Z,98995.50
2023-01-20T09:55:23.313Z,98997.34
2023-01-20T09:56:29.804Z,98994.59
2023-01-20T09:57:41.320Z,98995.34
2023-01-20T09:58:57.431Z,98997.88
2023-01-20T10:00:17.275Z,98996.84
2023-01-20T10:01:46.314Z,98990.75
2023-01-20T10:03:14.569Z,98987.22
2023-01-20T10:04:52.037Z,98991.59
2023-01-20T10:06:02.140Z,98993.31
2023-01-20T10:07:34.940Z,98988.06
2023-01-20T10:09:06.791Z,98986.22
2023-01-20T10:10:25.084Z,98986.38
2023-01-20T10:11:38.855Z,98982.81
2023-01-20T10:12:57.028Z,98984.53
2023-01-20T10:14:36.531Z,98982.81
2023-01-20T10:15:49.100Z,98986.16
2023-01-20T10:17:15.071Z,98980.84
2023-01-20T10:18:39.692Z,98982.75
2023-01-20T10:20:00.066Z,98992.25
2023-01-20T10:21:26.911Z,98990.47
2023-01-20T10:22:53.792Z,98990.47
2023-01-20T10:24:09.101Z,98991.31
2023-01-20T10:25:36.460Z,98995.59
2023-01-20T10:26:55.350Z,98993.84
2023-01-20T10:28:43.480Z,98987.75
2023-01-20T10:30:07.557Z,98992.06
2023-01-20T10:31:22.215Z,98990.44
2023-01-20T10:32:44.839Z,98991.31
2023-01-20T10:33:49.591Z,98986.22
2023-01-20T10:34:57.361Z,98991.59
2023-01-20T10:36:01.391Z,98990.44
2023-01-20T10:37:23.783Z,98992.13
2023-01-20T10:38:53.963Z,98996.47
2023-01-20T10:40:37.273Z,98992.97
2023-01-20T10:41:54.463Z,98990.16
2023-01-20T10:43:04.568Z,98992.78
2023-01-20T10:44:15.430Z,98993.63
2023-01-20T10:45:44.254Z,98991.22
2023-01-20T10:47:16.841Z,98986.03
2023-01-20T10:49:00.738Z,98985.81
2023-01-20T10:50:47.969Z,98983.09
2023-01-20T10:52:10.007Z,98983.09
2023-01-20T10:53:37.679Z,98983.78
2023-01-20T10:55:34.305Z,98988.38
2023-01-20T10:56:59.821Z,98977.31
2023-01-20T10:58:41.807Z,98978.78
2023-01-20T11:00:17.924Z,98981.56
2023-01-20T11:01:22.104Z,98978.44
2023-01-20T11:02:36.547Z,98984.00
2023-01-20T11:03:44.368Z,98984.53
2023-01-20T11:05:04.271Z,98985.81
2023-01-20T11:06:25.471Z,98985.13
2023-01-20T11:07:33.658Z,98987.25
2023-01-20T11:08:37.763Z,98985.44
2023-01-20T11:09:42.717Z,98984.63
2023-01-20T11:10:51.269Z,98979.53
2023-01-20T11:11:57.722Z,98979.38
2023-01-20T11:13:02.680Z,98979.28
2023-01-20T11:14:10.052Z,98969.47
2023-01-20T11:15:38.226Z,98967.47
2023-01-20T11:16:46.785Z,98960.16
2023-01-20T11:18:30.261Z,98955.34
2023-01-20T11:19:54.698Z,98955.28
2023-01-20T11:21:14.102Z,98950.28
2023-01-20T11:22:36.540Z,98958.16
2023-01-20T11:23:52.840Z,98956.59
2023-01-20T11:25:04.557Z,98962.56
2023-01-20T11:26:31.635Z,98962.56
2023-01-20T11:27:46.398Z,98964.06
2023-01-20T11:29:01.710Z,98961.97
2023-01-20T11:30:25.787Z,98956.78
2023-01-20T11:31:48.841Z,98957.78
2023-01-20T11:33:24.307Z,98961.84
2023-01-20T11:34:37.284Z,98958.09
2023-01-20T11:35:41.135Z,98952.81
2023-01-20T11:36:46.196Z,98955.47
2023-01-20T11:37:49.998Z,98950.28
2023-01-20T11:38:56.794Z,98943.00
2023-01-20T11:40:16.377Z,98938.56
2023-01-20T11:41:24.393Z,98934.91
2023-01-20T11:42:43.174Z,98936.66
2023-01-20T11:43:47.606Z,98930.91
2023-01-20T11:45:15.331Z,98937.97
2023-01-20T11:46:34.888Z,98939.28
2023-01-20T11:47:38.715Z,98935.16
2023-01-20T11:48:42.987Z,98938.84
2023-01-20T11:49:46.727Z,98939.00
2023-01-20T11:50:56.331Z,98932.16
2023-01-20T11:52:01.729Z,98927.94
2023-01-20T11:53:27.920Z,98923.69
2023-01-20T11:54:33.226Z,98915.44
2023-01-20T11:55:49.613Z,98917.00
2023-01-20T11:57:14.081Z,98921.53
2023-01-20T11:58:51.586Z,98915.00
2023-01-20T11:59:55.450Z,98923.56
2023-01-20T12:01:04.527Z,98923.81
2023-01-20T12:02:10.144Z,98923.44
2023-01-20T12:03:25.379Z,98914.00
2023-01-20T12:04:58.426Z,98921.25
2023-01-20T12:06:19.104Z,98916.63
2023-01-20T12:07:57.481Z,98917.53
2023-01-20T12:09:16.067Z,98911.22
2023-01-20T12:10:27.327Z,98921.72
2023-01-20T12:11:36.235Z,98911.63
2023-01-20T12:13:27.895Z,98924.72
2023-01-20T12:14:59.649Z,98921.09
2023-01-20T12:16:12.395Z,98922.78
2023-01-20T12:17:26.158Z,98932.50
2023-01-20T12:19:05.104Z,98937.91
2023-01-20T12:20:17.381Z,98938.63
2023-01-20T12:21:46.179Z,98934.50
2023-01-20T12:23:39.344Z,98945.63
2023-01-20T12:25:08.669Z,98942.31
2023-01-20T12:26:16.798Z,98937.84
2023-01-20T12:27:28.135Z,98932.59
2023-01-20T12:28:51.743Z,98932.59
2023-01-20T12:30:06.253Z,98937.06
2023-01-20T12:31:20.162Z,98935.38
2023-01-20T12:32:25.132Z,98934.56
2023-01-20T12:33:44.165Z,98935.28
2023-01-20T12:34:47.748Z,98937.91
2023-01-20T12:36:28.783Z,98939.00
2023-01-20T12:37:52.659Z,98947.97
2023-01-20T12:39:10.217Z,98943.47
2023-01-20T12:40:47.957Z,98956.34
2023-01-20T12:42:37.077Z,98942.03
2023-01-20T12:44:31.757Z,98951.00
2023-01-20T12:45:51.490Z,98948.25
2023-01-20T12:47:18.660Z,98946.53
2023-01-20T12:48:41.086Z,98952.66
2023-01-20T12:50:15.482Z,98950.81
2023-01-20T12:51:43.414Z,98954.47
2023-01-20T12:53:27.640Z,98952.09
2023-01-20T12:54:47.720Z,98954.59
2023-01-20T12:56:19.129Z,98963.16
2023-01-20T12:57:53.153Z,98968.38
2023-01-20T12:59:17.258Z,98962.91
2023-01-20T13:01:15.124Z,98956.06
2023-01-20T13:03:09.445Z,98968.41
2023-01-20T13:04:55.947Z,98983.09
2023-01-20T13:06:28.517Z,98976.09
2023-01-20T13:08:12.621Z,98976.94
2023-01-20T13:09:53.191Z,98980.28
2023-01-20T13:11:24.002Z,98988.13
2023-01-20T13:13:07.213Z,98994.56
2023-01-20T13:14:25.885Z,98992.59
2023-01-20T13:15:45.815Z,98993.66
2023-01-20T13:17:16.843Z,98992.50
2023-01-20T13:18:53.621Z,98993.19
2023-01-20T13:20:01.699Z,98994.13
2023-01-20T13:21:05.700Z,98992.28
2023-01-20T13:22:25.706Z,98985.16
2023-01-20T13:23:35.063Z,98986.00
2023-01-20T13:24:43.589Z,98982.41
2023-01-20T13:25:48.938Z,98985.88
2023-01-20T13:26:53.387Z,98991.84
2023-01-20T13:27:58.082Z,98985.75
2023-01-20T13:29:02.518Z,98990.09
2023-01-20T13:30:28.747Z,98981.31
2023-01-20T13:31:39.041Z,98977.06
2023-01-20T13:32:49.675Z,98981.38
2023-01-20T13:33:53.628Z,98976.97
2023-01-20T13:35:01.886Z,98986.47
2023-01-20T13:36:25.369Z,98981.31
2023-01-20T13:37:38.691Z,98980.56
2023-01-20T13:38:43.547Z,98991.19
2023-01-20T13:39:48.499Z,98987.56
2023-01-20T13:40:55.842Z,98985.69
2023-01-20T13:42:04.082Z,98986.38
2023-01-20T13:43:43.232Z,98992.38
2023-01-20T13:45:13.429Z,98988.31
2023-01-20T13:46:17.739Z,98986.38
2023-01-20T13:48:01.394Z,98988.84
2023-01-20T13:49:24.613Z,98991.31
2023-01-20T13:51:26.646Z,98990.09
2023-01-20T13:52:50.821Z,98995.00
2023-01-20T13:53:54.540Z,98994.22
2023-01-20T13:54:58.258Z,98997.69
2023-01-20T13:56:13.363Z,98994.66
2023-01-20T13:57:29.152Z,98992.09
2023-01-20T13:58:35.007Z,98990.94
2023-01-20T13:59:38.466Z,98998.81
2023-01-20T14:00:42.784Z,98988.38